Time;durP1;ratioP1;P1;durP2;ratioP2;P2;SDS_P1;SDS_P2;PMS_P1;PMS_P2;Temp;Humidity;BMP_temperature;BMP_pressure;BME280_temperature;BME280_humidity;BME280_pressure;Samples;Min_cycle;Max_cycle;Signal;HPM_P1;HPM_P2
2024/02/28 00:03:00;;;;;;;0.50;0.50;;;10.60;96.70;;;;;;10579159;28;20203;-83
2024/02/28 00:08:05;;;;;;;0.60;0.60;;;10.60;96.80;;;;;;10577862;28;20196;-82
2024/02/28 00:13:07;;;;;;;0.60;0.60;;;10.60;96.60;;;;;;10575760;28;20280;-81
2024/02/28 00:18:10;;;;;;;0.50;0.50;;;10.60;96.50;;;;;;10575830;28;20196;-82
2024/02/28 00:23:13;;;;;;;0.60;0.60;;;10.60;96.60;;;;;;10564720;28;20212;-80
2024/02/28 00:28:16;;;;;;;0.60;0.60;;;10.60;96.70;;;;;;10544565;28;20196;-80
2024/02/28 00:33:18;;;;;;;0.47;0.47;;;10.60;96.50;;;;;;10524713;28;20235;-80
2024/02/28 00:38:22;;;;;;;0.50;0.50;;;10.50;96.70;;;;;;10540337;28;20230;-81
2024/02/28 00:43:24;;;;;;;0.60;0.60;;;10.60;96.20;;;;;;10525153;28;20421;-79
2024/02/28 00:48:27;;;;;;;0.47;0.47;;;10.60;96.20;;;;;;10540348;28;20211;-80
2024/02/28 00:53:31;;;;;;;0.50;0.50;;;10.60;96.20;;;;;;10542807;28;20576;-79
2024/02/28 00:58:33;;;;;;;0.50;0.50;;;10.60;96.20;;;;;;10544242;28;20657;-80
2024/02/28 01:03:36;;;;;;;0.50;0.50;;;10.50;96.10;;;;;;10533564;28;20649;-81
2024/02/28 01:08:40;;;;;;;0.40;0.40;;;10.50;96.00;;;;;;10537539;28;20195;-80
2024/02/28 01:13:42;;;;;;;0.40;0.40;;;10.50;96.10;;;;;;10536590;28;20261;-80
2024/02/28 01:18:44;;;;;;;0.60;0.60;;;10.50;96.00;;;;;;10535808;28;20196;-79
2024/02/28 01:23:48;;;;;;;0.40;0.40;;;10.40;95.90;;;;;;10547897;28;20241;-80
2024/02/28 01:28:51;;;;;;;0.50;0.50;;;10.50;95.90;;;;;;10538963;28;20195;-79
2024/02/28 01:33:53;;;;;;;0.40;0.40;;;10.50;95.80;;;;;;10540733;28;20766;-81
2024/02/28 01:38:57;;;;;;;0.50;0.50;;;10.40;95.90;;;;;;10539900;28;20219;-79
2024/02/28 01:43:59;;;;;;;0.50;0.50;;;10.40;95.90;;;;;;10549954;28;20633;-82
2024/02/28 01:49:02;;;;;;;0.43;0.43;;;10.40;95.80;;;;;;10539551;28;20192;-81
2024/02/28 01:54:06;;;;;;;0.40;0.40;;;10.40;95.90;;;;;;10544201;28;20557;-79
2024/02/28 01:59:11;;;;;;;0.40;0.40;;;10.40;95.90;;;;;;10535889;28;20669;-81
2024/02/28 02:04:13;;;;;;;0.40;0.40;;;10.40;95.90;;;;;;10514602;28;20196;-80
2024/02/28 02:09:17;;;;;;;0.50;0.50;;;10.40;95.90;;;;;;10537173;28;20224;-81
2024/02/28 02:14:20;;;;;;;0.40;0.40;;;10.30;96.10;;;;;;10531557;28;20693;-80
2024/02/28 02:19:22;;;;;;;0.40;0.40;;;10.30;96.10;;;;;;10535371;28;20236;-79
2024/02/28 02:24:26;;;;;;;0.40;0.40;;;10.30;96.10;;;;;;10517635;28;20191;-79
2024/02/28 02:29:28;;;;;;;0.40;0.40;;;10.30;95.80;;;;;;10535324;28;20220;-80
2024/02/28 02:34:31;;;;;;;0.50;0.50;;;10.30;95.80;;;;;;10536156;28;20718;-80
2024/02/28 02:39:34;;;;;;;0.40;0.40;;;10.30;96.10;;;;;;10535699;28;20220;-79
2024/02/28 02:44:37;;;;;;;0.40;0.40;;;10.30;96.30;;;;;;10516973;28;20211;-80
2024/02/28 02:49:39;;;;;;;0.40;0.40;;;10.30;96.50;;;;;;10539482;28;20224;-80
2024/02/28 02:54:43;;;;;;;0.50;0.50;;;10.30;96.60;;;;;;10543057;28;20246;-81
2024/02/28 02:59:45;;;;;;;0.50;0.50;;;10.30;96.60;;;;;;10543778;28;20223;-80
2024/02/28 03:04:48;;;;;;;0.50;0.50;;;10.30;96.70;;;;;;10545811;28;20264;-81
2024/02/28 03:09:51;;;;;;;0.40;0.40;;;10.30;96.70;;;;;;10545303;28;20231;-79
2024/02/28 03:14:54;;;;;;;0.40;0.40;;;10.30;96.80;;;;;;10544573;28;20231;-81
2024/02/28 03:19:56;;;;;;;0.60;0.60;;;10.20;96.80;;;;;;10540455;28;20349;-78
2024/02/28 03:25:00;;;;;;;0.40;0.40;;;10.20;96.70;;;;;;10544315;28;20670;-83
2024/02/28 03:30:03;;;;;;;0.50;0.50;;;10.20;96.80;;;;;;10542062;28;20223;-80
2024/02/28 03:35:08;;;;;;;0.40;0.40;;;10.20;96.60;;;;;;10523198;28;20265;-80
2024/02/28 03:40:14;;;;;;;0.60;0.60;;;10.20;96.60;;;;;;10544012;28;20220;-81
2024/02/28 03:45:17;;;;;;;0.50;0.50;;;10.20;96.50;;;;;;10545462;28;20308;-81
2024/02/28 03:50:19;;;;;;;0.70;0.70;;;10.10;96.50;;;;;;10552200;28;20220;-79
2024/02/28 03:55:23;;;;;;;0.50;0.50;;;10.10;96.60;;;;;;10543815;28;20231;-79
2024/02/28 04:00:26;;;;;;;0.40;0.40;;;10.10;96.50;;;;;;10540621;28;20220;-81
2024/02/28 04:05:30;;;;;;;0.50;0.50;;;10.10;96.60;;;;;;10542070;28;20195;-80
2024/02/28 04:10:34;;;;;;;0.20;0.20;;;10.10;96.70;;;;;;10534030;28;20722;-79
2024/02/28 04:15:38;;;;;;;0.70;0.70;;;10.10;96.70;;;;;;10542604;28;20220;-79
2024/02/28 04:20:40;;;;;;;0.60;0.60;;;10.00;96.50;;;;;;10524660;28;20227;-79
2024/02/28 04:25:44;;;;;;;0.60;0.60;;;10.00;96.70;;;;;;10523046;28;20277;-80
2024/02/28 04:30:46;;;;;;;0.60;0.60;;;10.00;96.60;;;;;;10536703;28;20226;-81
2024/02/28 04:35:48;;;;;;;0.50;0.50;;;10.00;96.60;;;;;;10540887;28;20272;-79
2024/02/28 04:40:52;;;;;;;0.50;0.50;;;10.00;96.60;;;;;;10541881;28;20817;-80
2024/02/28 04:45:54;;;;;;;0.63;0.63;;;10.00;96.60;;;;;;10537107;28;20618;-81
2024/02/28 04:50:57;;;;;;;0.70;0.70;;;10.00;96.50;;;;;;10536961;28;20238;-81
2024/02/28 04:56:01;;;;;;;0.80;0.80;;;9.90;97.10;;;;;;10535273;28;20211;-80
2024/02/28 05:01:04;;;;;;;0.50;0.50;;;9.90;97.20;;;;;;10535552;28;20719;-80
2024/02/28 05:06:06;;;;;;;0.63;0.63;;;9.90;97.20;;;;;;10527796;28;20222;-81
2024/02/28 05:11:10;;;;;;;0.67;0.67;;;9.90;97.40;;;;;;10498794;28;20220;-78
2024/02/28 05:16:15;;;;;;;0.70;0.70;;;9.80;97.00;;;;;;10529721;28;20635;-81
2024/02/28 05:21:18;;;;;;;0.70;0.70;;;9.80;97.00;;;;;;10535290;28;20226;-80
2024/02/28 05:26:21;;;;;;;0.60;0.60;;;9.80;97.00;;;;;;10517034;28;20195;-82
2024/02/28 05:31:25;;;;;;;0.70;0.70;;;9.70;97.10;;;;;;10534706;28;20216;-77
2024/02/28 05:36:28;;;;;;;0.80;0.80;;;9.70;97.20;;;;;;10535780;28;20629;-79
2024/02/28 05:41:32;;;;;;;0.70;0.70;;;9.70;97.20;;;;;;10528425;28;20223;-81
2024/02/28 05:46:36;;;;;;;0.50;0.50;;;9.70;97.20;;;;;;10545261;28;20937;-79
2024/02/28 05:51:38;;;;;;;0.57;0.57;;;9.70;97.30;;;;;;10537776;28;20700;-79
2024/02/28 05:56:42;;;;;;;0.60;0.60;;;9.70;97.20;;;;;;10540049;28;20226;-80
2024/02/28 06:01:45;;;;;;;0.63;0.63;;;9.70;97.20;;;;;;10537693;28;20223;-81
2024/02/28 06:06:48;;;;;;;0.60;0.60;;;9.70;97.20;;;;;;10536082;28;20200;-79
2024/02/28 06:11:52;;;;;;;0.60;0.60;;;9.70;97.30;;;;;;10536521;28;20223;-77
2024/02/28 06:16:55;;;;;;;0.50;0.50;;;9.70;97.10;;;;;;10535846;28;20242;-78
2024/02/28 06:21:57;;;;;;;0.60;0.60;;;9.60;97.10;;;;;;10517986;28;20273;-81
2024/02/28 06:27:01;;;;;;;0.67;0.67;;;9.60;97.20;;;;;;10538171;28;20229;-79
2024/02/28 06:32:03;;;;;;;0.50;0.50;;;9.60;97.10;;;;;;10514591;28;20212;-78
2024/02/28 06:37:06;;;;;;;0.40;0.40;;;9.60;97.20;;;;;;10534830;28;20220;-79
2024/02/28 06:42:10;;;;;;;0.50;0.50;;;9.60;97.10;;;;;;10541734;28;20494;-79
2024/02/28 06:47:12;;;;;;;0.70;0.70;;;9.60;97.10;;;;;;10529969;28;20192;-79
2024/02/28 06:52:15;;;;;;;0.77;0.77;;;9.60;97.20;;;;;;10543743;28;20230;-80
2024/02/28 06:57:18;;;;;;;0.60;0.60;;;9.60;96.70;;;;;;10510394;28;20849;-81
2024/02/28 07:02:21;;;;;;;0.60;0.60;;;9.60;97.10;;;;;;10514182;28;20312;-79
2024/02/28 07:07:23;;;;;;;0.10;0.10;;;9.60;97.20;;;;;;10501087;28;20200;-81
2024/02/28 07:12:27;;;;;;;0.43;0.43;;;9.60;97.30;;;;;;10537442;28;20668;-80
2024/02/28 07:17:29;;;;;;;0.43;0.43;;;9.70;97.30;;;;;;10529566;28;20257;-79
2024/02/28 07:22:32;;;;;;;0.40;0.40;;;9.70;97.10;;;;;;10540416;28;20744;-81
2024/02/28 07:27:35;;;;;;;0.50;0.50;;;9.70;97.00;;;;;;10521799;28;20222;-79
2024/02/28 07:32:38;;;;;;;0.50;0.50;;;9.70;97.20;;;;;;10540854;28;20245;-81
2024/02/28 07:37:40;;;;;;;0.60;0.60;;;9.80;97.10;;;;;;10539843;28;20204;-81
2024/02/28 07:42:44;;;;;;;0.40;0.40;;;9.80;97.30;;;;;;10543034;28;20211;-80
2024/02/28 07:47:46;;;;;;;0.30;0.30;;;9.80;97.10;;;;;;10496218;28;20203;-79
2024/02/28 07:52:48;;;;;;;0.40;0.40;;;9.80;97.10;;;;;;10536813;28;20700;-80
2024/02/28 07:57:54;;;;;;;0.57;0.57;;;9.80;97.00;;;;;;10541534;28;20203;-80
2024/02/28 08:02:56;;;;;;;0.40;0.40;;;9.90;97.20;;;;;;10522088;28;20223;-80
2024/02/28 08:07:58;;;;;;;0.30;0.30;;;9.90;97.10;;;;;;10509250;28;20210;-80
2024/02/28 08:13:02;;;;;;;0.50;0.50;;;9.90;97.10;;;;;;10541528;28;20224;-81
2024/02/28 08:18:05;;;;;;;0.30;0.30;;;10.00;96.50;;;;;;10541165;28;20195;-81
2024/02/28 08:23:07;;;;;;;0.40;0.40;;;10.00;96.40;;;;;;10524592;28;20281;-81
2024/02/28 08:28:11;;;;;;;0.60;0.60;;;10.00;96.40;;;;;;10553290;28;20207;-79
2024/02/28 08:33:14;;;;;;;0.40;0.40;;;10.00;96.30;;;;;;10543023;28;20241;-80
2024/02/28 08:38:16;;;;;;;0.33;0.33;;;10.00;96.30;;;;;;10540935;28;20508;-82
2024/02/28 08:43:20;;;;;;;0.50;0.50;;;10.00;96.40;;;;;;10506169;28;20227;-84
2024/02/28 08:48:22;;;;;;;0.50;0.50;;;10.00;96.50;;;;;;10515591;28;20227;-82
2024/02/28 08:53:25;;;;;;;0.40;0.40;;;10.00;96.50;;;;;;10539118;28;20519;-81
2024/02/28 08:58:28;;;;;;;0.47;0.47;;;10.00;96.00;;;;;;10515252;28;20200;-82
2024/02/28 09:03:31;;;;;;;0.40;0.40;;;10.00;96.20;;;;;;10540046;28;20269;-80
2024/02/28 09:08:33;;;;;;;0.50;0.50;;;10.00;95.80;;;;;;10523732;28;20207;-80
2024/02/28 09:13:37;;;;;;;0.40;0.40;;;10.00;96.10;;;;;;10539329;28;20228;-80
2024/02/28 09:18:39;;;;;;;0.50;0.50;;;10.00;96.30;;;;;;10540361;28;20192;-79
2024/02/28 09:23:42;;;;;;;0.40;0.40;;;10.10;96.40;;;;;;10529554;28;20231;-80
2024/02/28 09:28:46;;;;;;;0.40;0.40;;;10.20;96.40;;;;;;10503696;28;20191;-81
2024/02/28 09:33:48;;;;;;;0.30;0.30;;;10.20;96.20;;;;;;10544122;28;20235;-79
2024/02/28 09:38:51;;;;;;;0.40;0.40;;;10.30;95.40;;;;;;10539991;28;20214;-81
2024/02/28 09:43:55;;;;;;;0.40;0.40;;;10.30;95.70;;;;;;10540279;28;20195;-78
2024/02/28 09:48:58;;;;;;;0.40;0.40;;;10.30;95.60;;;;;;10531237;28;21491;-80
2024/02/28 09:54:02;;;;;;;0.40;0.40;;;10.40;95.70;;;;;;10535062;28;20233;-82
2024/02/28 09:59:08;;;;;;;0.30;0.30;;;10.50;95.80;;;;;;10545116;28;20254;-81
2024/02/28 10:04:12;;;;;;;0.40;0.40;;;10.50;95.20;;;;;;10520798;28;20214;-81
2024/02/28 10:09:15;;;;;;;0.40;0.40;;;10.60;95.20;;;;;;10515558;28;20235;-80
2024/02/28 10:14:19;;;;;;;0.30;0.30;;;10.60;95.00;;;;;;10527907;28;20215;-80
2024/02/28 10:19:22;;;;;;;0.37;0.37;;;10.60;94.50;;;;;;10547010;28;20697;-80
2024/02/28 10:24:25;;;;;;;0.40;0.40;;;10.60;94.60;;;;;;10547343;28;20184;-83
2024/02/28 10:29:29;;;;;;;0.30;0.30;;;10.60;94.20;;;;;;10555566;28;20544;-80
2024/02/28 10:34:32;;;;;;;0.40;0.40;;;10.50;93.60;;;;;;10551190;28;20220;-82
2024/02/28 10:39:36;;;;;;;0.30;0.30;;;10.30;94.00;;;;;;10546762;28;20277;-83
2024/02/28 10:44:42;;;;;;;0.30;0.30;;;10.30;93.80;;;;;;10504184;28;20196;-81
2024/02/28 10:49:45;;;;;;;0.40;0.40;;;10.40;94.30;;;;;;10541163;28;20234;-80
2024/02/28 10:54:51;;;;;;;0.20;0.20;;;10.40;94.60;;;;;;10546982;28;20250;-80
2024/02/28 10:59:56;;;;;;;0.40;0.40;;;10.50;94.60;;;;;;10532217;28;20277;-82
2024/02/28 11:05:01;;;;;;;0.30;0.30;;;10.50;94.60;;;;;;10545874;28;20547;-82
2024/02/28 11:10:06;;;;;;;0.40;0.40;;;10.60;94.10;;;;;;10550358;22;20228;-75
2024/02/28 11:15:18;;;;;;;0.30;0.30;;;10.60;94.10;;;;;;10559500;28;20215;-74
2024/02/28 11:20:22;;;;;;;0.30;0.30;;;10.60;94.20;;;;;;10570824;28;20215;-75
2024/02/28 11:25:24;;;;;;;0.27;0.27;;;10.70;94.50;;;;;;10527123;28;20196;-76
2024/02/28 11:30:28;;;;;;;0.30;0.30;;;10.70;94.30;;;;;;10536804;28;20224;-75
2024/02/28 11:35:31;;;;;;;0.23;0.23;;;10.70;94.10;;;;;;10556105;28;20292;-76
2024/02/28 11:40:34;;;;;;;0.30;0.30;;;10.80;94.30;;;;;;10574911;28;20218;-76
2024/02/28 11:45:43;;;;;;;0.30;0.30;;;10.80;94.00;;;;;;10532109;28;20357;-76
2024/02/28 11:50:45;;;;;;;0.30;0.30;;;10.80;94.30;;;;;;10536243;28;20705;-76
2024/02/28 11:55:48;;;;;;;0.20;0.20;;;10.80;94.30;;;;;;10521912;28;20285;-76
2024/02/28 12:00:54;;;;;;;0.40;0.40;;;10.80;94.30;;;;;;10529987;28;20219;-76
2024/02/28 12:05:56;;;;;;;0.30;0.30;;;10.80;94.20;;;;;;10513603;28;20203;-76
2024/02/28 12:11:08;;;;;;;0.33;0.33;;;10.80;94.30;;;;;;10576862;28;20219;-76
2024/02/28 12:16:11;;;;;;;0.30;0.30;;;10.80;94.40;;;;;;10544108;28;20216;-76
2024/02/28 12:21:14;;;;;;;0.30;0.30;;;10.70;94.50;;;;;;10497974;28;20219;-75
2024/02/28 12:26:18;;;;;;;0.37;0.37;;;10.80;94.40;;;;;;10553475;28;20625;-74
2024/02/28 12:31:22;;;;;;;0.30;0.30;;;10.80;94.30;;;;;;10573553;28;20219;-76
2024/02/28 12:36:26;;;;;;;0.20;0.20;;;10.80;94.50;;;;;;10556902;28;20227;-76
2024/02/28 12:41:29;;;;;;;0.30;0.30;;;10.80;94.50;;;;;;10518092;28;20657;-76
2024/02/28 12:46:32;;;;;;;0.10;0.10;;;10.70;94.40;;;;;;10513708;28;20196;-76
2024/02/28 12:51:40;;;;;;;0.30;0.30;;;10.80;94.30;;;;;;10502417;28;20224;-76
2024/02/28 12:56:43;;;;;;;0.20;0.20;;;10.80;94.30;;;;;;10551884;28;20211;-76
2024/02/28 13:01:48;;;;;;;0.40;0.40;;;10.80;94.40;;;;;;10568914;28;20264;-76
2024/02/28 13:06:51;;;;;;;0.30;0.30;;;10.80;94.30;;;;;;10553477;28;20199;-76
2024/02/28 13:11:54;;;;;;;0.20;0.20;;;10.80;94.10;;;;;;10541073;28;20641;-74
2024/02/28 13:16:58;;;;;;;0.20;0.20;;;10.90;93.80;;;;;;10531344;28;20663;-76
2024/02/28 13:22:00;;;;;;;0.30;0.30;;;10.80;93.90;;;;;;10541882;28;20212;-77
2024/02/28 13:27:03;;;;;;;0.33;0.33;;;10.80;93.90;;;;;;10529816;28;20195;-76
2024/02/28 13:32:08;;;;;;;0.40;0.40;;;10.70;94.00;;;;;;10542557;28;20211;-76
2024/02/28 13:37:10;;;;;;;0.20;0.20;;;10.70;93.70;;;;;;10533540;28;20223;-78
2024/02/28 13:42:14;;;;;;;0.40;0.40;;;10.70;93.50;;;;;;10529708;28;20293;-75
2024/02/28 13:47:17;;;;;;;0.30;0.30;;;10.60;93.80;;;;;;10545210;28;20195;-76
2024/02/28 13:52:20;;;;;;;0.40;0.40;;;10.50;93.50;;;;;;10560714;28;20222;-75
2024/02/28 13:57:22;;;;;;;0.20;0.20;;;10.40;93.80;;;;;;10557936;28;20227;-78
2024/02/28 14:02:26;;;;;;;0.40;0.40;;;10.30;94.20;;;;;;10546042;28;20231;-76
2024/02/28 14:07:28;;;;;;;0.13;0.13;;;10.30;94.00;;;;;;10523417;28;20249;-77
2024/02/28 14:12:31;;;;;;;0.30;0.30;;;10.30;93.80;;;;;;10546949;28;20764;-78
2024/02/28 14:17:34;;;;;;;0.30;0.30;;;10.10;94.00;;;;;;10524834;28;20219;-75
2024/02/28 14:22:39;;;;;;;0.40;0.40;;;10.00;94.30;;;;;;10521149;28;20222;-78
2024/02/28 14:27:44;;;;;;;0.30;0.30;;;10.10;94.70;;;;;;10510422;28;20552;-76
2024/02/28 14:32:48;;;;;;;0.30;0.30;;;10.10;94.80;;;;;;10514116;28;20227;-77
2024/02/28 14:37:52;;;;;;;0.40;0.40;;;10.10;94.90;;;;;;10516168;28;20219;-77
2024/02/28 14:42:54;;;;;;;0.40;0.40;;;10.20;94.90;;;;;;10520683;28;20224;-76
2024/02/28 14:47:58;;;;;;;0.30;0.30;;;10.30;95.00;;;;;;10528291;28;20199;-76
2024/02/28 14:53:00;;;;;;;0.30;0.30;;;10.40;95.00;;;;;;10532053;28;20210;-76
2024/02/28 14:58:03;;;;;;;0.30;0.30;;;10.40;94.60;;;;;;10534783;28;20231;-75
2024/02/28 15:03:07;;;;;;;0.23;0.23;;;10.30;94.30;;;;;;10522274;28;20237;-76
2024/02/28 15:08:11;;;;;;;0.30;0.30;;;10.20;94.30;;;;;;10510144;28;20196;-76
2024/02/28 15:13:13;;;;;;;0.23;0.23;;;10.20;94.40;;;;;;10518829;28;20240;-76
2024/02/28 15:18:17;;;;;;;0.30;0.30;;;10.20;94.70;;;;;;10514632;28;20261;-76
2024/02/28 15:23:21;;;;;;;0.40;0.40;;;10.20;94.70;;;;;;10547124;28;20234;-76
2024/02/28 15:28:26;;;;;;;0.30;0.30;;;10.20;94.80;;;;;;10540813;28;20200;-76
2024/02/28 15:33:30;;;;;;;0.40;0.40;;;10.10;95.00;;;;;;10569573;28;20226;-74
2024/02/28 15:38:32;;;;;;;0.40;0.40;;;10.20;94.50;;;;;;10507344;28;20220;-76
2024/02/28 15:43:35;;;;;;;0.40;0.40;;;10.20;94.50;;;;;;10544018;28;20509;-76
2024/02/28 15:48:38;;;;;;;0.30;0.30;;;10.20;94.40;;;;;;10509965;28;20189;-76
2024/02/28 15:53:41;;;;;;;0.40;0.40;;;10.10;94.70;;;;;;10525718;28;20222;-76
2024/02/28 15:58:43;;;;;;;0.40;0.40;;;10.00;95.10;;;;;;10506109;28;20215;-76
2024/02/28 16:03:47;;;;;;;0.30;0.30;;;10.00;94.60;;;;;;10503043;28;20222;-76
2024/02/28 16:08:49;;;;;;;0.17;0.17;;;10.00;94.30;;;;;;10510805;28;20669;-76
2024/02/28 16:13:54;;;;;;;0.30;0.30;;;9.90;95.10;;;;;;10505130;28;20632;-76
2024/02/28 16:18:57;;;;;;;0.20;0.20;;;9.80;95.60;;;;;;10539038;28;20272;-76
2024/02/28 16:24:00;;;;;;;0.30;0.30;;;9.80;95.60;;;;;;10546228;28;20211;-76
2024/02/28 16:29:02;;;;;;;0.30;0.30;;;9.90;95.50;;;;;;10561966;28;20656;-75
2024/02/28 16:34:06;;;;;;;0.43;0.43;;;9.90;95.00;;;;;;10544572;28;20715;-75
2024/02/28 16:39:08;;;;;;;0.30;0.30;;;9.80;95.30;;;;;;10550248;28;20216;-75
2024/02/28 16:44:11;;;;;;;0.40;0.40;;;9.90;95.20;;;;;;10516414;28;20220;-76
2024/02/28 16:49:16;;;;;;;0.33;0.33;;;9.90;95.30;;;;;;10501935;28;20616;-76
2024/02/28 16:54:19;;;;;;;0.40;0.40;;;9.90;95.30;;;;;;10501210;28;20227;-76
2024/02/28 16:59:21;;;;;;;0.40;0.40;;;9.80;95.30;;;;;;10511336;28;20222;-77
2024/02/28 17:04:27;;;;;;;0.30;0.30;;;9.90;95.20;;;;;;10520388;28;20728;-76
2024/02/28 17:09:30;;;;;;;0.10;0.10;;;9.80;95.20;;;;;;10515363;28;20199;-74
2024/02/28 17:14:32;;;;;;;0.37;0.37;;;9.90;95.20;;;;;;10562696;22;20277;-82
2024/02/28 17:19:36;;;;;;;0.40;0.40;;;9.90;95.10;;;;;;10544485;28;20609;-81
2024/02/28 17:24:38;;;;;;;0.40;0.40;;;9.90;94.80;;;;;;10510454;28;20225;-82
2024/02/28 17:29:44;;;;;;;0.30;0.30;;;9.90;95.30;;;;;;10498350;28;20272;-81
2024/02/28 17:34:50;;;;;;;0.30;0.30;;;9.90;94.70;;;;;;10495569;28;20212;-81
2024/02/28 17:39:53;;;;;;;0.30;0.30;;;9.90;94.90;;;;;;10490403;28;20761;-81
2024/02/28 17:44:56;;;;;;;0.30;0.30;;;9.90;94.80;;;;;;10490655;28;20247;-80
2024/02/28 17:49:59;;;;;;;0.40;0.40;;;9.90;95.10;;;;;;10468425;28;20200;-80
2024/02/28 17:55:02;;;;;;;0.40;0.40;;;9.90;94.80;;;;;;10499091;28;20220;-81
2024/02/28 18:00:06;;;;;;;0.40;0.40;;;9.90;94.90;;;;;;10496143;28;20290;-78
2024/02/28 18:05:10;;;;;;;0.40;0.40;;;9.90;94.90;;;;;;10497590;28;20232;-80
2024/02/28 18:10:13;;;;;;;0.40;0.40;;;9.90;94.70;;;;;;10495778;28;20184;-80
2024/02/28 18:15:17;;;;;;;0.40;0.40;;;9.80;94.80;;;;;;10493519;28;20223;-80
2024/02/28 18:20:21;;;;;;;0.20;0.20;;;9.90;94.80;;;;;;10486476;28;20216;-78
2024/02/28 18:25:23;;;;;;;0.50;0.50;;;9.80;94.80;;;;;;10485570;28;20341;-79
2024/02/28 18:30:26;;;;;;;0.50;0.50;;;9.80;94.90;;;;;;10482731;28;20185;-78
2024/02/28 18:35:31;;;;;;;0.40;0.40;;;9.80;94.80;;;;;;10501074;28;20269;-78
2024/02/28 18:40:33;;;;;;;0.30;0.30;;;9.80;95.10;;;;;;10505713;28;20270;-78
2024/02/28 18:45:36;;;;;;;0.40;0.40;;;9.80;94.90;;;;;;10499608;28;20624;-80
2024/02/28 18:50:39;;;;;;;0.40;0.40;;;9.80;95.00;;;;;;10503390;28;20197;-78
2024/02/28 18:55:42;;;;;;;0.40;0.40;;;9.90;94.80;;;;;;10495531;28;20201;-80
2024/02/28 19:00:46;;;;;;;0.30;0.30;;;9.90;95.00;;;;;;10501970;28;20199;-80
2024/02/28 19:05:50;;;;;;;0.40;0.40;;;9.90;94.70;;;;;;10502665;28;20204;-80
2024/02/28 19:10:53;;;;;;;0.20;0.20;;;9.90;95.00;;;;;;10502361;28;20221;-79
2024/02/28 19:15:56;;;;;;;0.40;0.40;;;9.90;94.90;;;;;;10504565;28;20200;-80
2024/02/28 19:20:59;;;;;;;0.30;0.30;;;9.90;94.70;;;;;;10488662;28;20628;-83
2024/02/28 19:26:02;;;;;;;0.40;0.40;;;9.90;94.80;;;;;;10502148;28;20204;-83
2024/02/28 19:31:04;;;;;;;0.40;0.40;;;9.90;94.90;;;;;;10505375;28;20268;-79
2024/02/28 19:36:09;;;;;;;0.40;0.40;;;9.90;95.10;;;;;;10485858;28;20197;-78
2024/02/28 19:41:12;;;;;;;0.50;0.50;;;9.80;95.10;;;;;;10499953;28;20258;-80
2024/02/28 19:46:14;;;;;;;0.50;0.50;;;9.80;95.10;;;;;;10500548;28;20203;-82
2024/02/28 19:51:18;;;;;;;0.50;0.50;;;9.90;95.00;;;;;;10473111;28;20225;-80
2024/02/28 19:56:25;;;;;;;0.50;0.50;;;9.80;95.10;;;;;;10460555;28;20625;-81
2024/02/28 20:01:28;;;;;;;0.40;0.40;;;9.80;95.10;;;;;;10476983;28;20242;-80
2024/02/28 20:06:31;;;;;;;0.30;0.30;;;9.80;95.00;;;;;;10472666;28;20206;-85
2024/02/28 20:11:34;;;;;;;0.40;0.40;;;9.80;95.00;;;;;;10497471;28;20236;-82
2024/02/28 20:16:37;;;;;;;0.33;0.33;;;9.80;95.10;;;;;;10500869;28;20617;-83
2024/02/28 20:21:40;;;;;;;0.30;0.30;;;9.70;95.10;;;;;;10500949;28;20232;-82
2024/02/28 20:26:43;;;;;;;0.50;0.50;;;9.70;95.30;;;;;;10493098;28;20196;-79
2024/02/28 20:31:45;;;;;;;0.40;0.40;;;9.60;95.10;;;;;;10502544;28;20216;-82
2024/02/28 20:36:49;;;;;;;0.30;0.30;;;9.60;95.40;;;;;;10485453;28;20212;-79
2024/02/28 20:41:52;;;;;;;0.40;0.40;;;9.50;95.40;;;;;;10507428;28;20338;-80
2024/02/28 20:46:55;;;;;;;0.50;0.50;;;9.50;95.50;;;;;;10500590;28;20743;-81
2024/02/28 20:52:00;;;;;;;0.50;0.50;;;9.50;95.70;;;;;;10483114;28;20305;-83
2024/02/28 20:57:02;;;;;;;0.40;0.40;;;9.40;95.70;;;;;;10497323;28;20741;-80
2024/02/28 21:02:05;;;;;;;0.50;0.50;;;9.40;95.60;;;;;;10498352;28;20227;-83
2024/02/28 21:07:09;;;;;;;0.50;0.50;;;9.30;95.60;;;;;;10493746;28;20204;-82
2024/02/28 21:12:13;;;;;;;0.30;0.30;;;9.20;95.80;;;;;;10486774;28;20220;-80
2024/02/28 21:17:16;;;;;;;0.53;0.53;;;9.20;95.90;;;;;;10493776;28;20220;-81
2024/02/28 21:22:19;;;;;;;0.50;0.50;;;9.10;96.10;;;;;;10493943;28;20250;-81
2024/02/28 21:27:22;;;;;;;0.60;0.60;;;9.00;95.90;;;;;;10478495;28;20322;-81
2024/02/28 21:32:25;;;;;;;0.40;0.40;;;8.90;96.20;;;;;;10495699;28;20232;-81
2024/02/28 21:37:29;;;;;;;0.50;0.50;;;8.80;96.20;;;;;;10479244;28;20204;-80
2024/02/28 21:42:31;;;;;;;0.50;0.50;;;8.80;96.20;;;;;;10477781;28;20224;-83
2024/02/28 21:47:34;;;;;;;0.50;0.50;;;8.70;96.30;;;;;;10495683;28;20201;-82
2024/02/28 21:52:38;;;;;;;0.70;0.70;;;8.50;96.50;;;;;;10497506;28;20223;-82
2024/02/28 21:57:40;;;;;;;0.70;0.70;;;8.40;96.90;;;;;;10505466;28;20250;-82
2024/02/28 22:02:42;;;;;;;0.50;0.50;;;8.20;96.70;;;;;;10505837;28;20216;-81
2024/02/28 22:07:46;;;;;;;0.60;0.60;;;8.20;96.50;;;;;;10505919;28;20207;-78
2024/02/28 22:12:48;;;;;;;0.60;0.60;;;8.00;96.60;;;;;;10512449;28;20228;-81
2024/02/28 22:17:53;;;;;;;0.50;0.50;;;7.90;96.50;;;;;;10499938;28;20659;-81
2024/02/28 22:22:57;;;;;;;0.50;0.50;;;7.80;96.70;;;;;;10503696;28;20212;-80
2024/02/28 22:27:59;;;;;;;0.50;0.50;;;7.60;96.90;;;;;;10483967;28;20204;-81
2024/02/28 22:33:01;;;;;;;0.50;0.50;;;7.60;96.90;;;;;;10492680;28;20220;-80
2024/02/28 22:38:05;;;;;;;0.60;0.60;;;7.50;96.90;;;;;;10501196;28;20840;-82
2024/02/28 22:43:08;;;;;;;0.50;0.50;;;7.30;97.00;;;;;;10509977;28;20639;-81
2024/02/28 22:48:11;;;;;;;0.60;0.60;;;7.20;97.10;;;;;;10502201;28;20192;-80
2024/02/28 22:53:15;;;;;;;0.50;0.50;;;;;;;;;;10497881;28;20228;-78
2024/02/28 22:58:17;;;;;;;0.60;0.60;;;7.00;97.00;;;;;;10495697;28;20273;-78
2024/02/28 23:03:19;;;;;;;0.60;0.60;;;7.00;97.50;;;;;;10497648;28;20251;-80
2024/02/28 23:08:23;;;;;;;0.70;0.70;;;6.90;97.50;;;;;;10499994;28;20193;-80
2024/02/28 23:13:26;;;;;;;0.60;0.60;;;6.90;97.70;;;;;;10539669;22;20227;-77
2024/02/28 23:18:28;;;;;;;0.80;0.80;;;6.80;97.60;;;;;;10519872;28;20220;-78
2024/02/28 23:23:32;;;;;;;0.63;0.63;;;6.70;97.70;;;;;;10518379;28;20219;-79
2024/02/28 23:28:34;;;;;;;0.50;0.50;;;6.70;97.70;;;;;;10491346;28;20220;-77
2024/02/28 23:33:36;;;;;;;0.60;0.60;;;6.70;97.80;;;;;;10495999;28;20633;-80
2024/02/28 23:38:40;;;;;;;0.67;0.67;;;6.60;98.00;;;;;;10494709;28;20221;-77
2024/02/28 23:43:43;;;;;;;0.60;0.60;;;6.60;97.90;;;;;;10495489;28;20217;-80
2024/02/28 23:48:45;;;;;;;0.77;0.77;;;6.50;98.00;;;;;;10495549;28;20197;-78
2024/02/28 23:53:49;;;;;;;0.70;0.70;;;6.50;98.10;;;;;;10495545;28;20216;-77
2024/02/28 23:58:51;;;;;;;0.77;0.77;;;6.40;98.60;;;;;;10495184;28;20220;-79
